createdAt,value
2022-12-08T00:01:06.058Z,7.93
2022-12-08T00:03:34.246Z,9.20
2022-12-08T00:06:21.331Z,7.78
2022-12-08T00:09:03.116Z,8.90
2022-12-08T00:11:30.842Z,10.05
2022-12-08T00:14:00.096Z,8.68
2022-12-08T00:16:27.931Z,8.93
2022-12-08T00:18:55.748Z,9.50
2022-12-08T00:21:23.528Z,8.73
2022-12-08T00:23:51.293Z,9.05
2022-12-08T00:26:19.022Z,7.63
2022-12-08T00:28:47.210Z,7.68
2022-12-08T00:31:16.528Z,8.80
2022-12-08T00:33:44.344Z,9.88
2022-12-08T00:36:15.173Z,10.43
2022-12-08T00:38:44.691Z,11.25
2022-12-08T00:41:15.063Z,9.70
2022-12-08T00:43:43.338Z,11.65
2022-12-08T00:46:12.042Z,10.18
2022-12-08T00:48:41.381Z,11.77
2022-12-08T00:51:09.151Z,9.18
2022-12-08T00:53:36.894Z,10.02
2022-12-08T00:56:04.718Z,10.60
2022-12-08T00:58:32.449Z,9.10
2022-12-08T01:01:00.175Z,10.13
2022-12-08T01:03:28.043Z,9.52
2022-12-08T01:05:57.168Z,9.70
2022-12-08T01:08:25.031Z,11.30
2022-12-08T01:10:53.007Z,9.35
2022-12-08T01:13:20.736Z,9.18
2022-12-08T01:15:48.563Z,8.80
2022-12-08T01:18:16.398Z,8.85
2022-12-08T01:20:44.193Z,9.60
2022-12-08T01:23:14.105Z,12.25
2022-12-08T01:25:41.885Z,13.30
2022-12-08T01:28:09.635Z,11.70
2022-12-08T01:30:39.367Z,10.30
2022-12-08T01:33:07.521Z,10.45
2022-12-08T01:35:35.602Z,9.85
2022-12-08T01:38:03.403Z,9.35
2022-12-08T01:40:32.568Z,8.88
2022-12-08T01:43:00.346Z,8.65
2022-12-08T01:45:29.718Z,8.40
2022-12-08T01:48:00.946Z,9.13
2022-12-08T01:53:00.480Z,8.00
2022-12-08T01:55:37.993Z,9.30
2022-12-08T01:58:13.308Z,8.98
2022-12-08T02:00:41.072Z,6.90
2022-12-08T02:03:14.294Z,9.38
2022-12-08T02:05:42.920Z,6.55
2022-12-08T02:08:12.548Z,7.22
2022-12-08T02:10:43.513Z,6.07
2022-12-08T02:13:14.494Z,7.38
2022-12-08T02:15:58.408Z,6.82
2022-12-08T02:18:43.561Z,6.28
2022-12-08T02:21:17.744Z,8.50
2022-12-08T02:23:55.108Z,6.90
2022-12-08T02:29:36.235Z,7.43
2022-12-08T02:32:22.013Z,7.18
2022-12-08T02:34:58.648Z,8.85
2022-12-08T02:37:30.763Z,10.05
2022-12-08T02:40:04.679Z,9.02
2022-12-08T02:42:39.752Z,8.43
2022-12-08T02:45:13.526Z,8.77
2022-12-08T02:47:42.011Z,9.20
2022-12-08T02:50:11.937Z,8.63
2022-12-08T02:52:44.548Z,10.55
2022-12-08T02:55:19.555Z,9.73
2022-12-08T02:57:57.649Z,9.23
2022-12-08T03:00:28.334Z,9.43
2022-12-08T03:03:08.683Z,9.00
2022-12-08T03:05:57.249Z,8.82
2022-12-08T03:08:32.263Z,8.80
2022-12-08T03:11:04.896Z,8.93
2022-12-08T03:13:39.635Z,9.30
2022-12-08T03:16:10.907Z,8.48
2022-12-08T03:18:44.253Z,9.85
2022-12-08T03:21:15.437Z,9.45
2022-12-08T03:23:45.949Z,9.73
2022-12-08T03:26:19.791Z,8.05
2022-12-08T03:28:48.092Z,7.90
2022-12-08T03:31:18.669Z,7.75
2022-12-08T03:33:52.722Z,7.25
2022-12-08T03:36:21.847Z,8.55
2022-12-08T03:38:53.812Z,7.07
2022-12-08T03:41:23.437Z,6.90
2022-12-08T03:43:52.102Z,6.82
2022-12-08T03:48:51.765Z,6.13
2022-12-08T03:51:21.006Z,6.57
2022-12-08T03:53:49.015Z,5.32
2022-12-08T03:56:20.999Z,7.05
2022-12-08T03:58:48.730Z,5.15
2022-12-08T04:01:16.546Z,4.88
2022-12-08T04:03:44.317Z,4.53
2022-12-08T04:06:12.092Z,4.25
2022-12-08T04:08:41.398Z,5.18
2022-12-08T04:11:09.765Z,5.03
2022-12-08T04:13:39.780Z,5.45
2022-12-08T04:16:08.603Z,4.55
2022-12-08T04:18:36.863Z,3.97
2022-12-08T04:21:04.807Z,4.30
2022-12-08T04:23:32.551Z,4.85
2022-12-08T04:26:01.666Z,3.58
2022-12-08T04:28:29.650Z,4.10
2022-12-08T04:30:57.458Z,4.72
2022-12-08T04:33:25.455Z,3.85
2022-12-08T04:35:53.219Z,3.95
2022-12-08T04:38:20.951Z,4.45
2022-12-08T04:40:48.722Z,3.92
2022-12-08T04:43:18.915Z,5.38
2022-12-08T04:45:47.488Z,3.38
2022-12-08T04:48:15.591Z,6.15
2022-12-08T04:50:45.472Z,5.78
2022-12-08T04:53:14.351Z,4.95
2022-12-08T04:55:43.823Z,6.25
2022-12-08T04:58:14.124Z,5.90
2022-12-08T05:00:43.902Z,4.90
2022-12-08T05:03:11.974Z,6.90
2022-12-08T05:05:39.949Z,5.65
2022-12-08T05:08:07.806Z,6.20
2022-12-08T05:10:35.688Z,6.65
2022-12-08T05:13:03.445Z,5.40
2022-12-08T05:15:31.268Z,5.22
2022-12-08T05:18:00.363Z,6.93
2022-12-08T05:20:28.540Z,4.43
2022-12-08T05:22:56.238Z,4.30
2022-12-08T05:25:24.045Z,5.88
2022-12-08T05:27:55.285Z,4.70
2022-12-08T05:30:29.661Z,5.30
2022-12-08T05:32:57.392Z,4.10
2022-12-08T05:35:26.471Z,6.65
2022-12-08T05:37:54.270Z,5.22
2022-12-08T05:40:22.021Z,3.55
2022-12-08T05:42:49.776Z,3.45
2022-12-08T05:45:17.551Z,3.50
2022-12-08T05:47:45.420Z,4.07
2022-12-08T05:50:13.270Z,4.13
2022-12-08T05:52:42.489Z,3.40
2022-12-08T05:55:11.384Z,4.78
2022-12-08T05:57:39.124Z,4.68
2022-12-08T06:00:08.363Z,3.97
2022-12-08T06:02:39.577Z,4.38
2022-12-08T06:05:08.495Z,3.92
2022-12-08T06:07:36.613Z,4.53
2022-12-08T06:10:07.713Z,3.50
2022-12-08T06:12:35.575Z,5.28
2022-12-08T06:15:03.404Z,4.40
2022-12-08T06:17:31.151Z,4.97
2022-12-08T06:19:58.918Z,3.20
2022-12-08T06:22:26.791Z,4.75
2022-12-08T06:24:54.548Z,3.25
2022-12-08T06:27:23.640Z,3.10
2022-12-08T06:29:51.415Z,3.72
2022-12-08T06:32:24.323Z,3.55
2022-12-08T06:34:54.975Z,3.63
2022-12-08T06:37:22.696Z,3.90
2022-12-08T06:39:50.627Z,4.90
2022-12-08T06:42:35.784Z,3.60
2022-12-08T06:45:05.578Z,4.03
2022-12-08T06:47:33.381Z,3.20
2022-12-08T06:50:01.576Z,3.92
2022-12-08T06:52:29.491Z,3.75
2022-12-08T06:54:57.253Z,5.32
2022-12-08T06:57:25.717Z,3.92
2022-12-08T06:59:53.468Z,3.50
2022-12-08T07:02:22.572Z,3.38
2022-12-08T07:04:50.365Z,3.80
2022-12-08T07:07:18.171Z,3.22
2022-12-08T07:09:45.899Z,3.30
2022-12-08T07:12:13.699Z,3.92
2022-12-08T07:14:41.469Z,4.13
2022-12-08T07:17:09.277Z,4.43
2022-12-08T07:19:38.409Z,4.60
2022-12-08T07:22:06.257Z,4.72
2022-12-08T07:24:34.059Z,4.43
2022-12-08T07:27:01.866Z,5.53
2022-12-08T07:29:29.620Z,4.93
2022-12-08T07:31:57.403Z,5.80
2022-12-08T07:34:25.403Z,4.93
2022-12-08T07:36:54.475Z,4.88
2022-12-08T07:39:23.053Z,5.65
2022-12-08T07:41:51.045Z,6.25
2022-12-08T07:44:18.788Z,5.32
2022-12-08T07:46:46.959Z,5.95
2022-12-08T07:49:14.736Z,6.28
2022-12-08T07:51:42.494Z,5.15
2022-12-08T07:54:13.343Z,5.63
2022-12-08T07:56:41.091Z,5.57
2022-12-08T07:59:08.808Z,6.25
2022-12-08T08:01:36.801Z,6.72
2022-12-08T08:04:06.289Z,6.95
2022-12-08T08:06:36.272Z,5.18
2022-12-08T08:09:04.059Z,5.50
2022-12-08T08:11:33.157Z,5.45
2022-12-08T08:14:00.948Z,6.43
2022-12-08T08:16:32.238Z,5.28
2022-12-08T08:19:04.396Z,4.60
2022-12-08T08:21:47.414Z,4.90
2022-12-08T08:24:15.196Z,4.40
2022-12-08T08:26:44.271Z,5.28
2022-12-08T08:29:12.085Z,3.72
2022-12-08T08:31:40.831Z,6.68
2022-12-08T08:34:09.119Z,5.22
2022-12-08T08:36:37.068Z,4.93
2022-12-08T08:39:05.443Z,4.82
2022-12-08T08:41:33.411Z,4.25
2022-12-08T08:44:02.818Z,6.65
2022-12-08T08:46:30.644Z,4.55
2022-12-08T08:48:58.551Z,4.57
2022-12-08T08:51:26.373Z,4.38
2022-12-08T08:53:54.107Z,3.95
2022-12-08T08:56:24.214Z,4.03
2022-12-08T08:58:53.682Z,4.63
2022-12-08T09:01:25.110Z,3.88
2022-12-08T09:03:53.421Z,4.93
2022-12-08T09:06:21.834Z,3.97
2022-12-08T09:08:50.179Z,4.10
2022-12-08T09:11:18.981Z,3.83
2022-12-08T09:13:48.861Z,3.50
2022-12-08T09:16:17.256Z,4.10
2022-12-08T09:18:47.284Z,3.50
2022-12-08T09:21:20.305Z,3.90
2022-12-08T09:23:48.094Z,4.05
2022-12-08T09:26:17.077Z,4.82
2022-12-08T09:28:46.634Z,4.53
2022-12-08T09:31:14.901Z,4.38
2022-12-08T09:33:43.108Z,3.78
2022-12-08T09:36:12.780Z,4.78
2022-12-08T09:38:41.549Z,4.20
2022-12-08T09:41:17.449Z,4.50
2022-12-08T09:44:01.831Z,4.30
2022-12-08T09:46:33.406Z,4.22
2022-12-08T09:49:03.167Z,4.05
2022-12-08T09:51:41.582Z,3.90
2022-12-08T09:54:16.940Z,4.40
2022-12-08T09:56:44.983Z,4.03
2022-12-08T09:59:23.689Z,3.80
2022-12-08T10:01:52.688Z,4.45
2022-12-08T10:04:24.987Z,3.85
2022-12-08T10:07:04.756Z,4.50
2022-12-08T10:09:41.087Z,4.53
2022-12-08T10:12:17.427Z,5.03
2022-12-08T10:14:48.315Z,5.28
2022-12-08T10:17:21.971Z,4.10
2022-12-08T10:19:50.496Z,7.18
2022-12-08T10:22:23.191Z,4.60
2022-12-08T10:25:01.077Z,5.65
2022-12-08T10:27:29.152Z,4.38
2022-12-08T10:29:56.833Z,4.03
2022-12-08T10:32:29.131Z,5.68
2022-12-08T10:35:02.890Z,7.32
2022-12-08T10:37:32.035Z,4.18
2022-12-08T10:40:01.564Z,4.82
2022-12-08T10:42:36.357Z,3.90
2022-12-08T10:45:21.254Z,5.38
2022-12-08T10:47:58.336Z,4.28
2022-12-08T10:50:31.965Z,3.85
2022-12-08T10:53:02.762Z,5.78
2022-12-08T10:55:40.191Z,4.03
2022-12-08T10:58:25.363Z,4.57
2022-12-08T11:00:55.586Z,4.90
2022-12-08T11:03:29.164Z,5.55
2022-12-08T11:06:02.739Z,3.15
2022-12-08T11:08:34.855Z,3.05
2022-12-08T11:11:02.676Z,3.85
2022-12-08T11:13:30.520Z,4.47
2022-12-08T11:15:58.705Z,2.55
2022-12-08T11:18:29.975Z,4.47
2022-12-08T11:21:01.757Z,4.10
2022-12-08T11:23:31.327Z,4.20
2022-12-08T11:26:06.723Z,3.25
2022-12-08T11:28:34.458Z,3.05
2022-12-08T11:31:08.078Z,2.28
2022-12-08T11:33:35.902Z,4.43
2022-12-08T11:36:07.251Z,3.22
2022-12-08T11:38:40.851Z,3.60
2022-12-08T11:41:16.403Z,4.85
2022-12-08T11:43:50.307Z,4.40
2022-12-08T11:46:22.341Z,3.70
2022-12-08T11:48:54.996Z,4.63
2022-12-08T11:51:31.399Z,5.85
2022-12-08T11:54:12.412Z,4.82
2022-12-08T11:56:45.664Z,5.05
2022-12-08T11:59:20.579Z,4.82
2022-12-08T12:01:48.429Z,4.90
2022-12-08T12:04:24.847Z,5.13
2022-12-08T12:07:26.358Z,4.95
2022-12-08T12:10:10.675Z,4.57
2022-12-08T12:12:55.268Z,4.53
2022-12-08T12:16:04.917Z,3.92
2022-12-08T12:18:38.760Z,3.60
2022-12-08T12:21:12.094Z,5.43
2022-12-08T12:23:44.220Z,3.85
2022-12-08T12:26:20.603Z,2.42
2022-12-08T12:28:54.383Z,3.30
2022-12-08T12:31:26.117Z,3.40
2022-12-08T12:33:58.255Z,2.78
2022-12-08T12:36:26.735Z,3.60
2022-12-08T12:39:02.141Z,3.20
2022-12-08T12:41:36.515Z,2.50
2022-12-08T12:44:26.760Z,3.78
2022-12-08T12:46:59.958Z,3.25
2022-12-08T12:49:50.845Z,3.70
2022-12-08T12:52:37.848Z,3.55
2022-12-08T12:55:23.790Z,4.43
2022-12-08T12:57:53.495Z,3.78
2022-12-08T13:00:24.084Z,6.32
2022-12-08T13:02:53.575Z,6.43
2022-12-08T13:05:24.863Z,4.63
2022-12-08T13:07:56.219Z,5.82
2022-12-08T13:10:26.594Z,6.50
2022-12-08T13:13:07.744Z,4.70
2022-12-08T13:15:39.416Z,4.40
2022-12-08T13:18:08.589Z,5.47
2022-12-08T13:20:43.761Z,5.20
2022-12-08T13:23:27.977Z,4.60
2022-12-08T13:26:15.138Z,5.03
2022-12-08T13:29:08.599Z,4.35
2022-12-08T13:31:48.376Z,4.10
2022-12-08T13:34:21.868Z,3.92
2022-12-08T13:37:18.799Z,3.95
2022-12-08T13:39:52.833Z,4.57
2022-12-08T13:42:26.040Z,3.40
2022-12-08T13:48:21.619Z,3.30
2022-12-08T13:57:03.968Z,4.00
2022-12-08T13:59:30.296Z,3.83
2022-12-08T14:02:02.140Z,4.10
2022-12-08T14:04:47.893Z,4.55
2022-12-08T14:07:20.097Z,4.50
2022-12-08T14:09:47.995Z,5.15
2022-12-08T14:12:20.728Z,5.57
2022-12-08T14:15:03.081Z,5.93
2022-12-08T14:20:02.902Z,6.60
2022-12-08T14:22:35.360Z,5.85
2022-12-08T14:25:03.872Z,6.47
2022-12-08T14:27:35.774Z,5.72
2022-12-08T14:30:07.361Z,5.72
2022-12-08T14:32:40.060Z,5.90
2022-12-08T14:35:25.566Z,5.72
2022-12-08T14:37:56.862Z,5.32
2022-12-08T14:43:06.135Z,5.85
2022-12-08T14:45:35.081Z,5.45
2022-12-08T14:48:25.437Z,6.97
2022-12-08T14:51:05.256Z,7.47
2022-12-08T14:53:40.656Z,6.53
2022-12-08T14:56:15.469Z,5.97
2022-12-08T14:58:43.356Z,5.80
2022-12-08T15:01:13.836Z,6.30
2022-12-08T15:03:44.670Z,6.40
2022-12-08T15:06:22.948Z,5.68
2022-12-08T15:08:58.755Z,7.22
2022-12-08T15:11:33.036Z,6.47
2022-12-08T15:14:01.089Z,6.70
2022-12-08T15:16:32.931Z,6.82
2022-12-08T15:19:10.771Z,6.80
2022-12-08T15:21:44.641Z,6.90
2022-12-08T15:24:14.037Z,8.68
2022-12-08T15:26:44.907Z,9.45
2022-12-08T15:29:17.695Z,8.07
2022-12-08T15:31:45.480Z,7.82
2022-12-08T15:34:13.256Z,8.85
2022-12-08T15:36:42.903Z,8.48
2022-12-08T15:39:22.195Z,9.60
2022-12-08T15:41:49.940Z,9.25
2022-12-08T15:44:17.721Z,9.77
2022-12-08T15:46:45.578Z,9.38
2022-12-08T15:49:18.440Z,8.50
2022-12-08T15:51:46.681Z,8.32
2022-12-08T15:54:15.864Z,9.20
2022-12-08T15:57:17.496Z,10.82
2022-12-08T15:59:35.226Z,10.95
2022-12-08T16:02:03.083Z,9.45
2022-12-08T16:05:18.245Z,10.40
2022-12-08T16:07:24.350Z,9.93
2022-12-08T16:09:54.236Z,11.40
2022-12-08T16:13:48.125Z,9.90
2022-12-08T16:18:24.174Z,10.63
2022-12-08T16:21:16.920Z,10.43
2022-12-08T16:23:44.635Z,11.43
2022-12-08T16:26:28.641Z,10.18
2022-12-08T16:29:04.938Z,9.48
2022-12-08T16:31:33.354Z,11.60
2022-12-08T16:34:01.444Z,11.35
2022-12-08T16:36:29.268Z,9.85
2022-12-08T16:38:57.067Z,10.27
2022-12-08T16:41:43.618Z,10.63
2022-12-08T16:44:11.383Z,9.75
2022-12-08T16:46:39.207Z,11.35
2022-12-08T16:49:09.706Z,9.80
2022-12-08T16:51:37.608Z,9.75
2022-12-08T16:54:05.665Z,10.43
2022-12-08T16:56:34.832Z,10.02
2022-12-08T16:59:02.814Z,10.32
2022-12-08T17:01:30.720Z,9.18
2022-12-08T17:04:29.716Z,9.80
2022-12-08T17:06:46.424Z,9.35
2022-12-08T17:09:14.243Z,9.90
2022-12-08T17:11:44.070Z,9.55
2022-12-08T17:14:12.595Z,10.20
2022-12-08T17:16:40.592Z,10.18
2022-12-08T17:19:08.431Z,10.48
2022-12-08T17:21:36.813Z,12.05
2022-12-08T17:24:04.873Z,9.85
2022-12-08T17:26:32.694Z,10.27
2022-12-08T17:29:02.593Z,10.18
2022-12-08T17:31:32.249Z,11.10
2022-12-08T17:34:00.672Z,10.68
2022-12-08T17:36:28.473Z,10.40
2022-12-08T17:38:56.673Z,12.15
2022-12-08T17:41:24.436Z,10.65
2022-12-08T17:43:52.645Z,10.18
2022-12-08T17:46:23.010Z,10.48
2022-12-08T17:48:50.895Z,11.02
2022-12-08T17:51:18.744Z,10.40
2022-12-08T17:53:48.880Z,9.98
2022-12-08T17:56:20.782Z,10.23
2022-12-08T17:58:54.284Z,12.82
2022-12-08T18:01:24.313Z,11.68
2022-12-08T18:04:01.919Z,11.95
2022-12-08T18:06:31.363Z,12.45
2022-12-08T18:09:00.844Z,11.73
2022-12-08T18:11:30.142Z,13.55
2022-12-08T18:13:58.603Z,12.48
2022-12-08T18:16:28.654Z,14.00
2022-12-08T18:18:56.494Z,13.20
2022-12-08T18:21:24.280Z,13.35
2022-12-08T18:23:52.155Z,14.65
2022-12-08T18:26:20.846Z,14.93
2022-12-08T18:28:48.602Z,15.70
2022-12-08T18:31:18.981Z,16.77
2022-12-08T18:33:49.220Z,16.65
2022-12-08T18:36:18.864Z,13.85
2022-12-08T18:38:47.302Z,14.60
2022-12-08T18:41:17.782Z,14.48
2022-12-08T18:43:45.893Z,14.73
2022-12-08T18:46:15.532Z,14.10
2022-12-08T18:48:45.946Z,14.32
2022-12-08T18:51:16.621Z,14.43
2022-12-08T18:53:45.173Z,17.13
2022-12-08T18:56:22.139Z,13.45
2022-12-08T18:58:49.912Z,13.32
2022-12-08T19:01:17.989Z,15.02
2022-12-08T19:04:12.103Z,17.00
2022-12-08T19:06:37.754Z,14.48
2022-12-08T19:09:05.577Z,15.40
2022-12-08T19:11:33.347Z,15.38
2022-12-08T19:14:01.128Z,16.30
2022-12-08T19:16:29.044Z,17.98
2022-12-08T19:18:57.071Z,17.63
2022-12-08T19:21:24.995Z,19.13
2022-12-08T19:23:55.881Z,17.40
2022-12-08T19:26:23.716Z,18.40
2022-12-08T19:28:51.576Z,17.42
2022-12-08T19:31:19.484Z,16.30
2022-12-08T19:33:47.329Z,17.45
2022-12-08T19:36:17.065Z,18.95
2022-12-08T19:39:01.475Z,20.90
2022-12-08T19:41:48.754Z,21.70
2022-12-08T19:44:38.511Z,19.27
2022-12-08T19:47:06.394Z,19.05
2022-12-08T19:49:34.286Z,22.25
2022-12-08T19:52:02.079Z,21.83
2022-12-08T19:54:29.844Z,21.67
2022-12-08T19:56:58.945Z,22.83
2022-12-08T19:59:27.101Z,24.73
2022-12-08T20:01:55.774Z,21.30
2022-12-08T20:04:24.841Z,22.60
2022-12-08T20:06:53.955Z,24.05
2022-12-08T20:09:22.596Z,25.88
2022-12-08T20:11:50.908Z,24.08
2022-12-08T20:14:20.373Z,23.48
2022-12-08T20:16:48.311Z,23.63
2022-12-08T20:19:16.099Z,25.60
2022-12-08T20:21:43.860Z,25.38
2022-12-08T20:24:11.868Z,23.80
2022-12-08T20:26:39.700Z,27.25
2022-12-08T20:29:07.548Z,25.17
2022-12-08T20:31:36.729Z,22.80
2022-12-08T20:34:04.673Z,22.67
2022-12-08T20:36:32.439Z,25.05
2022-12-08T20:39:00.330Z,26.23
2022-12-08T20:41:28.171Z,24.48
2022-12-08T20:43:55.967Z,24.00
2022-12-08T20:46:23.897Z,26.60
2022-12-08T20:48:53.063Z,25.55
2022-12-08T20:51:21.128Z,27.77
2022-12-08T20:53:48.993Z,26.40
2022-12-08T20:56:18.918Z,28.40
2022-12-08T20:58:47.057Z,27.60
2022-12-08T21:01:18.199Z,28.15
2022-12-08T21:03:47.090Z,24.25
2022-12-08T21:06:17.218Z,23.77
2022-12-08T21:08:59.312Z,27.85
2022-12-08T21:11:29.013Z,26.48
2022-12-08T21:13:57.023Z,25.50
2022-12-08T21:16:24.873Z,26.92
2022-12-08T21:18:52.979Z,26.30
2022-12-08T21:21:22.350Z,27.83
2022-12-08T21:23:50.472Z,26.83
2022-12-08T21:26:21.695Z,28.17
2022-12-08T21:28:49.531Z,30.33
2022-12-08T21:31:21.585Z,28.35
2022-12-08T21:33:50.205Z,26.90
2022-12-08T21:36:20.718Z,29.25
2022-12-08T21:38:50.376Z,27.67
2022-12-08T21:41:41.713Z,29.02
2022-12-08T21:44:12.232Z,28.77
2022-12-08T21:46:40.282Z,28.08
2022-12-08T21:49:08.650Z,27.48
2022-12-08T21:51:41.449Z,26.42
2022-12-08T21:54:18.302Z,29.63
2022-12-08T21:56:47.711Z,26.80
2022-12-08T21:59:16.156Z,27.67
2022-12-08T22:01:44.514Z,29.20
2022-12-08T22:04:13.217Z,29.40
2022-12-08T22:06:41.220Z,27.35
2022-12-08T22:09:11.767Z,29.17
2022-12-08T22:11:39.915Z,29.77
2022-12-08T22:14:12.564Z,29.75
2022-12-08T22:16:42.975Z,30.77
2022-12-08T22:19:11.106Z,28.25
2022-12-08T22:21:39.165Z,27.88
2022-12-08T22:24:07.472Z,28.90
2022-12-08T22:26:36.845Z,30.95
2022-12-08T22:29:04.868Z,27.63
2022-12-08T22:31:33.015Z,30.95
2022-12-08T22:34:01.141Z,29.00
2022-12-08T22:36:29.828Z,28.25
2022-12-08T22:38:58.039Z,30.25
2022-12-08T22:41:25.863Z,29.88
2022-12-08T22:43:55.208Z,28.60
2022-12-08T22:46:25.649Z,31.15
2022-12-08T22:48:54.667Z,34.55
2022-12-08T22:51:22.575Z,30.55
2022-12-08T22:53:50.493Z,30.73
2022-12-08T22:56:19.679Z,31.85
2022-12-08T22:58:47.825Z,31.27
2022-12-08T23:01:26.149Z,31.02
2022-12-08T23:03:54.259Z,32.80
2022-12-08T23:06:22.568Z,35.13
2022-12-08T23:08:51.051Z,34.55
2022-12-08T23:11:19.668Z,34.17
2022-12-08T23:13:48.140Z,34.53
2022-12-08T23:16:16.338Z,34.72
2022-12-08T23:18:47.064Z,31.55
2022-12-08T23:21:17.735Z,35.80
2022-12-08T23:23:45.830Z,31.55
2022-12-08T23:26:17.983Z,36.45
2022-12-08T23:28:46.152Z,33.83
2022-12-08T23:31:14.390Z,30.95
2022-12-08T23:33:42.725Z,33.92
2022-12-08T23:36:12.966Z,37.38
2022-12-08T23:38:40.704Z,31.90
2022-12-08T23:41:09.727Z,35.20
2022-12-08T23:43:37.847Z,32.42
2022-12-08T23:46:05.729Z,31.50
2022-12-08T23:48:34.973Z,30.35
2022-12-08T23:51:02.947Z,32.90
2022-12-08T23:53:33.146Z,29.02
2022-12-08T23:56:01.796Z,31.73
2022-12-08T23:58:31.276Z,30.60
